Albion, IA (50005)

7:27 AM CST on February 09, 2016 (GMT -0600)
Marshalltown Municipal | | Change Station
CLOSE
Current Station
Airport
Location: Marshalltown,
Elevation: 971 ft
Nearby Weather Stations

Elev 971 ft 42.11 °N, 92.92 °W | Updated 34 minutes ago

Overcast
Overcast
9 °F
Feels Like -11 °F
N
23
Wind Variable Wind from NNW

Today
High -- | Low -- °F
--% Chance of Precip.
Yesterday
High -- | Low -- °F
Precip. -- in
Pressure 30.08 in
Visibility 10.0 miles
Clouds Overcast 1200 ft
Windchill -11 °F
Dew Point 4 °F
Humidity 80%
Rainfall 0.00 in
Snow Depth Not available.
7:16 AM 5:36 PM
New Moon, 1% visible
METAR KMIW 091253Z AUTO 33020KT 10SM OVC012 M13/M16 A3002 RMK AO2 UPB10E17SNE10 SLP185 P0000 T11281156
Pressure 30.08 in
Visibility 10.0 miles
Clouds Overcast 1200 ft
Windchill -11 °F
Dew Point 4 °F
Humidity 80%
Rainfall 0.00 in
Snow Depth Not available.
7:16 AM 5:36 PM
New Moon, 1% visible
METAR KMIW 091253Z AUTO 33020KT 10SM OVC012 M13/M16 A3002 RMK AO2 UPB10E17SNE10 SLP185 P0000 T11281156

10-Day Weather Forecast

Almanac

Astronomy

Feb. 09, 2016 Rise Set
Actual Time
Civil Twilight
Nautical Twilight
Astronomical Twilight
Moon
Length of Visible Light
Length of Day
Tomorrow will be .
, % of the Moon is Illuminated

Today's Extremes

State Highs State Lows

Community

WunderPhotos

Upload Photos

1,891,591 photos uploaded!

WunderBlog® & News

Nearby

Air Quality

  Air Quality AQ Index Pollutant
Not available.

Snow Depth

Station Depth Elevation

Earthquake Activity

City Distance Mag. Time & Date
Minimum magnitude displayed is 2.5.

Coastal Water Temperatures

Place Temperature

Stations

Nearby Weather Stations

Station Location Temp. Windchill Dew Point Humidity Wind Precip. Elev Updated Type
                   

Watches & Warnings

There are currently no watches in effect.